createdAt,value
2023-03-28T00:01:00.548Z,5.94
2023-03-28T00:03:29.075Z,5.85
2023-03-28T00:06:02.712Z,5.86
2023-03-28T00:08:30.704Z,5.74
2023-03-28T00:11:19.928Z,5.79
2023-03-28T00:14:03.517Z,5.75
2023-03-28T00:16:33.637Z,5.53
2023-03-28T00:19:03.740Z,5.61
2023-03-28T00:21:35.343Z,5.69
2023-03-28T00:24:06.700Z,5.70
2023-03-28T00:26:35.660Z,5.55
2023-03-28T00:29:06.691Z,5.55
2023-03-28T00:31:35.127Z,5.62
2023-03-28T00:34:02.207Z,5.59
2023-03-28T00:36:29.452Z,5.55
2023-03-28T00:38:57.834Z,5.55
2023-03-28T00:41:26.726Z,5.47
2023-03-28T00:43:55.830Z,5.38
2023-03-28T00:46:40.227Z,5.38
2023-03-28T00:49:15.908Z,5.41
2023-03-28T00:51:53.329Z,5.25
2023-03-28T00:54:21.010Z,5.23
2023-03-28T00:56:52.318Z,5.23
2023-03-28T00:59:23.706Z,5.27
2023-03-28T01:01:50.837Z,5.25
2023-03-28T01:04:20.467Z,5.19
2023-03-28T01:06:54.601Z,5.11
2023-03-28T01:09:24.150Z,5.14
2023-03-28T01:11:52.376Z,5.06
2023-03-28T01:14:23.249Z,4.98
2023-03-28T01:16:51.313Z,5.08
2023-03-28T01:19:44.490Z,5.11
2023-03-28T01:22:38.033Z,5.05
2023-03-28T01:25:44.496Z,4.92
2023-03-28T01:28:43.602Z,4.93
2023-03-28T01:31:42.997Z,4.96
2023-03-28T01:34:26.231Z,4.87
2023-03-28T01:37:05.572Z,4.93
2023-03-28T01:40:05.963Z,4.92
2023-03-28T01:42:53.200Z,4.79
2023-03-28T01:46:04.075Z,4.81
2023-03-28T01:48:47.218Z,4.85
2023-03-28T01:51:28.743Z,4.77
2023-03-28T01:54:34.238Z,4.79
2023-03-28T01:57:33.721Z,4.77
2023-03-28T02:00:21.472Z,4.74
2023-03-28T02:03:04.580Z,4.76
2023-03-28T02:05:34.927Z,4.72
2023-03-28T02:08:05.863Z,4.54
2023-03-28T02:10:33.274Z,4.65
2023-03-28T02:13:10.846Z,4.64
2023-03-28T02:15:41.334Z,4.64
2023-03-28T02:18:18.024Z,4.52
2023-03-28T02:20:45.592Z,4.57
2023-03-28T02:23:23.851Z,4.47
2023-03-28T02:25:51.610Z,4.39
2023-03-28T02:28:20.044Z,4.56
2023-03-28T02:30:46.868Z,4.56
2023-03-28T02:33:43.964Z,4.56
2023-03-28T02:36:52.461Z,4.49
2023-03-28T02:39:46.719Z,4.46
2023-03-28T02:42:55.953Z,4.41
2023-03-28T02:45:41.479Z,4.38
2023-03-28T02:48:37.880Z,4.42
2023-03-28T02:52:09.264Z,4.40
2023-03-28T02:54:53.403Z,4.41
2023-03-28T02:57:33.505Z,4.37
2023-03-28T03:00:11.520Z,4.30
2023-03-28T03:02:40.647Z,4.30
2023-03-28T03:05:09.639Z,4.30
2023-03-28T03:07:37.896Z,4.32
2023-03-28T03:10:11.301Z,4.30
2023-03-28T03:12:38.424Z,4.20
2023-03-28T03:15:06.144Z,4.28
2023-03-28T03:17:33.394Z,4.24
2023-03-28T03:20:02.524Z,4.23
2023-03-28T03:22:29.326Z,4.19
2023-03-28T03:24:56.357Z,4.16
2023-03-28T03:27:23.154Z,4.20
2023-03-28T03:29:50.298Z,4.15
2023-03-28T03:32:17.090Z,4.02
2023-03-28T03:34:43.923Z,4.02
2023-03-28T03:37:10.712Z,4.01
2023-03-28T03:39:37.531Z,3.96
2023-03-28T03:42:04.681Z,4.04
2023-03-28T03:44:31.637Z,3.84
2023-03-28T03:46:58.547Z,4.01
2023-03-28T03:49:25.382Z,3.99
2023-03-28T03:51:52.334Z,3.99
2023-03-28T03:54:19.345Z,3.97
2023-03-28T03:56:46.449Z,3.89
2023-03-28T03:59:13.335Z,3.91
2023-03-28T04:01:41.538Z,3.95
2023-03-28T04:04:08.428Z,3.95
2023-03-28T04:06:35.724Z,3.89
2023-03-28T04:09:02.524Z,3.88
2023-03-28T04:11:29.319Z,3.96
2023-03-28T04:13:56.148Z,3.73
2023-03-28T04:16:23.860Z,3.67
2023-03-28T04:18:50.977Z,3.83
2023-03-28T04:21:21.014Z,3.76
2023-03-28T04:23:48.411Z,3.70
2023-03-28T04:26:15.507Z,3.86
2023-03-28T04:28:43.613Z,3.74
2023-03-28T04:31:12.084Z,3.79
2023-03-28T04:33:40.103Z,3.70
2023-03-28T04:36:08.045Z,3.78
2023-03-28T04:38:41.710Z,3.75
2023-03-28T04:41:08.746Z,3.77
2023-03-28T04:43:35.553Z,3.81
2023-03-28T04:46:02.948Z,3.81
2023-03-28T04:48:30.078Z,3.79
2023-03-28T04:50:57.267Z,3.70
2023-03-28T04:53:24.389Z,3.67
2023-03-28T04:55:51.277Z,3.70
2023-03-28T04:58:23.019Z,3.43
2023-03-28T05:00:50.496Z,3.58
2023-03-28T05:03:21.222Z,3.48
2023-03-28T05:05:51.267Z,3.69
2023-03-28T05:08:22.584Z,3.67
2023-03-28T05:10:50.542Z,3.67
2023-03-28T05:13:17.648Z,3.64
2023-03-28T05:15:47.500Z,3.64
2023-03-28T05:18:15.480Z,3.61
2023-03-28T05:20:42.563Z,3.55
2023-03-28T05:23:09.639Z,3.54
2023-03-28T05:25:36.632Z,3.59
2023-03-28T05:28:04.438Z,3.49
2023-03-28T05:30:31.497Z,3.56
2023-03-28T05:32:59.466Z,3.48
2023-03-28T05:35:26.562Z,3.54
2023-03-28T05:37:53.394Z,3.57
2023-03-28T05:40:20.505Z,3.44
2023-03-28T05:42:47.331Z,3.47
2023-03-28T05:45:14.513Z,3.57
2023-03-28T05:47:41.531Z,3.54
2023-03-28T05:50:09.558Z,3.52
2023-03-28T05:52:36.365Z,3.57
2023-03-28T05:55:03.278Z,3.56
2023-03-28T05:57:30.121Z,3.58
2023-03-28T05:59:57.018Z,3.57
2023-03-28T06:02:24.416Z,3.58
2023-03-28T06:04:53.898Z,3.58
2023-03-28T06:07:31.511Z,3.51
2023-03-28T06:10:08.569Z,3.61
2023-03-28T06:12:35.794Z,3.66
2023-03-28T06:15:02.646Z,3.54
2023-03-28T06:17:29.535Z,3.58
2023-03-28T06:19:56.497Z,3.63
2023-03-28T06:22:23.379Z,3.61
2023-03-28T06:24:50.440Z,3.74
2023-03-28T06:27:17.291Z,3.74
2023-03-28T06:29:44.146Z,3.73
2023-03-28T06:32:12.582Z,3.84
2023-03-28T06:34:39.524Z,3.78
2023-03-28T06:37:06.552Z,3.89
2023-03-28T06:39:33.357Z,3.88
2023-03-28T06:42:03.210Z,3.94
2023-03-28T06:44:31.062Z,3.93
2023-03-28T06:46:58.429Z,4.00
2023-03-28T06:49:25.390Z,4.03
2023-03-28T06:51:53.204Z,4.07
2023-03-28T06:54:20.234Z,4.10
2023-03-28T06:56:47.075Z,3.89
2023-03-28T06:59:13.934Z,4.14
2023-03-28T07:01:41.136Z,4.22
2023-03-28T07:04:08.251Z,4.25
2023-03-28T07:06:35.257Z,4.16
2023-03-28T07:09:03.489Z,4.30
2023-03-28T07:11:32.369Z,4.25
2023-03-28T07:13:59.311Z,4.28
2023-03-28T07:16:26.183Z,4.25
2023-03-28T07:18:53.052Z,4.38
2023-03-28T07:21:20.061Z,4.33
2023-03-28T07:23:46.951Z,4.33
2023-03-28T07:26:15.474Z,4.46
2023-03-28T07:28:42.492Z,4.34
2023-03-28T07:31:09.617Z,4.52
2023-03-28T07:33:38.579Z,4.27
2023-03-28T07:36:21.135Z,4.42
2023-03-28T07:38:49.435Z,4.54
2023-03-28T07:41:16.490Z,4.51
2023-03-28T07:43:43.405Z,4.56
2023-03-28T07:46:14.369Z,4.59
2023-03-28T07:48:42.062Z,4.68
2023-03-28T07:51:10.653Z,4.68
2023-03-28T07:53:38.001Z,4.69
2023-03-28T07:56:10.756Z,4.75
2023-03-28T07:58:41.806Z,4.82
2023-03-28T08:01:13.721Z,4.80
2023-03-28T08:03:41.805Z,4.91
2023-03-28T08:06:20.650Z,4.88
2023-03-28T08:08:55.965Z,5.00
2023-03-28T08:11:22.949Z,4.96
2023-03-28T08:13:49.802Z,4.92
2023-03-28T08:16:16.674Z,5.03
2023-03-28T08:18:43.562Z,5.07
2023-03-28T08:21:10.500Z,5.18
2023-03-28T08:23:37.322Z,5.16
2023-03-28T08:26:06.134Z,5.11
2023-03-28T08:28:37.778Z,5.24
2023-03-28T08:31:14.276Z,5.30
2023-03-28T08:33:47.157Z,5.27
2023-03-28T08:36:14.896Z,5.36
2023-03-28T08:38:43.035Z,5.41
2023-03-28T08:41:46.095Z,5.46
2023-03-28T08:45:03.456Z,5.50
2023-03-28T08:47:59.415Z,5.45
2023-03-28T08:51:02.578Z,5.53
2023-03-28T08:53:37.289Z,5.54
2023-03-28T08:56:09.098Z,5.58
2023-03-28T08:58:58.572Z,5.61
2023-03-28T09:01:29.221Z,5.71
2023-03-28T09:03:56.602Z,5.74
2023-03-28T09:06:40.846Z,5.73
2023-03-28T09:09:16.232Z,5.81
2023-03-28T09:12:17.199Z,5.81
2023-03-28T09:15:19.091Z,5.85
2023-03-28T09:18:30.856Z,6.05
2023-03-28T09:21:18.122Z,6.00
2023-03-28T09:24:10.436Z,6.14
2023-03-28T09:26:47.613Z,6.17
2023-03-28T09:29:18.895Z,6.21
2023-03-28T09:31:54.492Z,6.20
2023-03-28T09:34:27.761Z,6.06
2023-03-28T09:37:15.777Z,6.11
2023-03-28T09:39:53.424Z,6.25
2023-03-28T09:42:29.312Z,6.24
2023-03-28T09:45:05.654Z,6.32
2023-03-28T09:47:33.200Z,6.32
2023-03-28T09:50:10.034Z,6.18
2023-03-28T09:52:40.180Z,6.42
2023-03-28T09:55:22.287Z,6.51
2023-03-28T09:58:10.170Z,6.48
2023-03-28T10:00:58.227Z,6.59
2023-03-28T10:03:33.257Z,6.53
2023-03-28T10:06:18.228Z,6.59
2023-03-28T10:08:45.314Z,6.62
2023-03-28T10:11:17.985Z,6.62
2023-03-28T10:13:51.178Z,6.64
2023-03-28T10:16:32.230Z,6.55
2023-03-28T10:18:59.134Z,6.68
2023-03-28T10:21:30.465Z,6.70
2023-03-28T10:24:02.976Z,6.70
2023-03-28T10:26:30.913Z,6.69
2023-03-28T10:29:04.282Z,6.77
2023-03-28T10:31:33.131Z,6.88
2023-03-28T10:34:02.741Z,6.84
2023-03-28T10:36:43.618Z,6.84
2023-03-28T10:39:24.821Z,6.89
2023-03-28T10:41:57.456Z,6.98
2023-03-28T10:44:30.331Z,6.94
2023-03-28T10:47:03.616Z,7.03
2023-03-28T10:49:47.096Z,7.11
2023-03-28T10:52:38.260Z,7.25
2023-03-28T10:55:14.218Z,7.40
2023-03-28T10:58:20.855Z,7.76
2023-03-28T11:01:22.914Z,8.12
2023-03-28T11:04:26.640Z,8.68
2023-03-28T11:07:20.767Z,8.86
2023-03-28T11:10:24.451Z,8.71
2023-03-28T11:13:15.889Z,8.77
2023-03-28T11:15:48.385Z,9.07
2023-03-28T11:18:48.921Z,9.12
2023-03-28T11:21:59.620Z,9.05
2023-03-28T11:24:58.688Z,8.86
2023-03-28T11:27:41.703Z,8.81
2023-03-28T11:30:21.501Z,8.67
2023-03-28T11:33:02.666Z,8.65
2023-03-28T11:35:47.158Z,8.61
2023-03-28T11:38:32.521Z,8.67
2023-03-28T11:41:23.971Z,8.66
2023-03-28T11:44:19.029Z,8.44
2023-03-28T11:46:52.447Z,8.47
2023-03-28T11:49:36.182Z,8.50
2023-03-28T11:52:28.266Z,8.42
2023-03-28T11:55:26.395Z,8.34
2023-03-28T11:58:11.458Z,8.33
2023-03-28T12:01:00.878Z,8.26
2023-03-28T12:03:55.661Z,8.42
2023-03-28T12:07:18.956Z,8.54
2023-03-28T12:10:14.969Z,8.50
2023-03-28T12:13:10.374Z,8.49
2023-03-28T12:16:05.032Z,8.55
2023-03-28T12:18:34.305Z,8.67
2023-03-28T12:21:03.413Z,8.70
2023-03-28T12:23:43.380Z,8.49
2023-03-28T12:27:00.929Z,8.46
2023-03-28T12:29:53.577Z,8.70
2023-03-28T12:32:35.280Z,8.74
2023-03-28T12:35:21.451Z,8.72
2023-03-28T12:38:24.071Z,8.81
2023-03-28T12:41:04.490Z,8.67
2023-03-28T12:43:49.130Z,8.76
2023-03-28T12:46:29.094Z,8.71
2023-03-28T12:49:18.734Z,8.66
2023-03-28T12:51:54.222Z,8.98
2023-03-28T12:54:28.728Z,8.94
2023-03-28T12:57:21.042Z,8.86
2023-03-28T13:00:28.366Z,8.88
2023-03-28T13:03:27.008Z,8.98
2023-03-28T13:06:03.356Z,8.99
2023-03-28T13:09:16.714Z,9.10
2023-03-28T13:12:15.353Z,8.74
2023-03-28T13:14:43.211Z,8.81
2023-03-28T13:17:26.583Z,8.61
2023-03-28T13:20:07.354Z,8.58
2023-03-28T13:22:42.488Z,8.72
2023-03-28T13:25:32.161Z,8.88
2023-03-28T13:28:12.082Z,8.85
2023-03-28T13:30:43.960Z,8.80
2023-03-28T13:33:27.810Z,8.87
2023-03-28T13:36:03.648Z,9.14
2023-03-28T13:38:30.572Z,9.24
2023-03-28T13:41:09.520Z,9.28
2023-03-28T13:43:45.696Z,9.23
2023-03-28T13:46:25.712Z,9.35
2023-03-28T13:49:13.479Z,9.22
2023-03-28T13:51:54.991Z,9.21
2023-03-28T13:54:23.763Z,9.22
2023-03-28T13:56:52.517Z,9.23
2023-03-28T13:59:26.248Z,9.10
2023-03-28T14:02:00.102Z,9.29
2023-03-28T14:04:33.318Z,9.35
2023-03-28T14:07:01.795Z,9.32
2023-03-28T14:09:28.532Z,9.33
2023-03-28T14:11:59.894Z,9.38
2023-03-28T14:14:42.976Z,9.27
2023-03-28T14:17:22.587Z,9.47
2023-03-28T14:20:05.995Z,9.46
2023-03-28T14:22:45.716Z,9.37
2023-03-28T14:25:21.586Z,9.39
2023-03-28T14:27:55.890Z,9.24
2023-03-28T14:30:36.979Z,9.42
2023-03-28T14:33:14.826Z,9.64
2023-03-28T14:35:51.045Z,9.64
2023-03-28T15:39:53.099Z,10.22
2023-03-28T15:42:20.097Z,10.47
2023-03-28T15:44:59.104Z,10.44
2023-03-28T15:47:30.218Z,10.42
2023-03-28T15:50:05.459Z,10.35
2023-03-28T15:52:34.186Z,10.56
2023-03-28T15:55:02.587Z,10.56
2023-03-28T15:57:30.754Z,10.64
2023-03-28T15:59:58.785Z,10.63
2023-03-28T16:02:25.739Z,10.99
2023-03-28T16:05:10.881Z,10.99
2023-03-28T16:07:50.613Z,11.08
2023-03-28T16:10:20.986Z,11.02
2023-03-28T16:12:51.053Z,10.95
2023-03-28T16:15:19.162Z,11.09
2023-03-28T16:17:47.264Z,11.13
2023-03-28T16:20:25.979Z,11.12
2023-03-28T16:22:52.776Z,10.93
2023-03-28T16:25:19.788Z,11.15
2023-03-28T16:27:46.625Z,11.19
2023-03-28T16:30:42.978Z,11.24
2023-03-28T16:33:10.207Z,11.25
2023-03-28T16:35:37.789Z,11.24
2023-03-28T16:38:04.724Z,11.29
2023-03-28T16:40:31.741Z,11.25
2023-03-28T16:42:58.617Z,11.18
2023-03-28T16:45:25.442Z,11.23
2023-03-28T16:47:52.516Z,11.22
2023-03-28T16:50:19.472Z,11.18
2023-03-28T16:52:46.315Z,11.18
2023-03-28T16:55:16.605Z,11.13
2023-03-28T16:57:43.928Z,11.05
2023-03-28T17:00:17.698Z,11.08
2023-03-28T17:02:48.784Z,10.99
2023-03-28T17:05:17.035Z,10.89
2023-03-28T17:07:43.845Z,10.95
2023-03-28T17:10:11.602Z,10.95
2023-03-28T17:12:38.463Z,10.72
2023-03-28T17:15:06.659Z,11.11
2023-03-28T17:17:33.616Z,10.95
2023-03-28T17:20:01.113Z,11.09
2023-03-28T17:22:27.970Z,11.05
2023-03-28T17:24:57.073Z,11.01
2023-03-28T17:27:23.966Z,10.89
2023-03-28T17:29:51.784Z,10.78
2023-03-28T17:32:18.865Z,10.65
2023-03-28T17:34:46.284Z,10.59
2023-03-28T17:37:13.245Z,10.72
2023-03-28T17:39:40.834Z,10.69
2023-03-28T17:42:09.032Z,10.54
2023-03-28T17:44:35.894Z,10.60
2023-03-28T17:47:03.011Z,10.56
2023-03-28T17:49:30.083Z,10.64
2023-03-28T17:51:57.240Z,10.62
2023-03-28T17:54:24.597Z,10.59
2023-03-28T17:56:52.471Z,10.46
2023-03-28T17:59:19.623Z,10.58
2023-03-28T18:01:46.535Z,10.48
2023-03-28T18:04:13.607Z,10.58
2023-03-28T18:06:41.086Z,10.55
2023-03-28T18:09:07.937Z,10.52
2023-03-28T18:11:35.779Z,10.66
2023-03-28T18:14:02.595Z,10.63
2023-03-28T18:16:29.613Z,10.53
2023-03-28T18:18:57.400Z,10.59
2023-03-28T18:21:24.806Z,10.52
2023-03-28T18:23:51.716Z,10.51
2023-03-28T18:26:18.580Z,10.49
2023-03-28T18:28:45.388Z,10.50
2023-03-28T18:31:15.976Z,10.51
2023-03-28T18:33:44.059Z,10.47
2023-03-28T18:36:12.799Z,10.48
2023-03-28T18:38:42.785Z,10.46
2023-03-28T18:41:12.393Z,10.45
2023-03-28T18:43:41.982Z,10.42
2023-03-28T18:48:40.260Z,10.37
2023-03-28T18:51:07.671Z,10.33
2023-03-28T18:53:40.606Z,10.24
2023-03-28T18:56:08.839Z,10.25
2023-03-28T18:58:39.065Z,10.25
2023-03-28T19:01:08.720Z,10.19
2023-03-28T19:03:40.480Z,10.16
2023-03-28T19:06:09.783Z,10.15
2023-03-28T19:08:36.879Z,10.13
2023-03-28T19:11:12.215Z,10.10
2023-03-28T19:13:39.405Z,10.01
2023-03-28T19:16:10.643Z,10.07
2023-03-28T19:18:40.066Z,10.03
2023-03-28T19:21:08.305Z,10.02
2023-03-28T19:23:36.878Z,9.92
2023-03-28T19:26:06.742Z,10.01
2023-03-28T19:28:33.965Z,10.02
2023-03-28T19:31:04.426Z,9.98
2023-03-28T19:33:31.397Z,9.97
2023-03-28T19:35:58.650Z,9.89
2023-03-28T19:38:26.360Z,9.94
2023-03-28T19:41:10.056Z,9.86
2023-03-28T19:43:38.093Z,9.93
2023-03-28T19:46:08.272Z,9.93
2023-03-28T19:48:35.827Z,9.84
2023-03-28T19:51:03.448Z,9.76
2023-03-28T19:53:30.241Z,9.92
2023-03-28T19:55:59.445Z,9.90
2023-03-28T19:58:27.532Z,9.89
2023-03-28T20:00:56.769Z,9.72
2023-03-28T20:03:23.635Z,9.71
2023-03-28T20:05:50.615Z,9.86
2023-03-28T20:08:18.966Z,9.83
2023-03-28T20:10:51.333Z,9.69
2023-03-28T20:13:18.946Z,9.89
2023-03-28T20:15:46.914Z,9.87
2023-03-28T20:18:20.889Z,9.85
2023-03-28T20:21:00.393Z,9.84
2023-03-28T20:23:29.700Z,9.81
2023-03-28T20:25:58.693Z,9.57
2023-03-28T20:28:25.766Z,9.52
2023-03-28T20:30:53.983Z,9.71
2023-03-28T20:33:21.249Z,9.74
2023-03-28T20:35:52.890Z,9.75
2023-03-28T20:38:19.716Z,9.68
2023-03-28T20:40:46.610Z,9.74
2023-03-28T20:43:19.923Z,9.73
2023-03-28T20:45:54.687Z,9.69
2023-03-28T20:48:34.920Z,9.68
2023-03-28T20:51:15.085Z,9.69
2023-03-28T20:53:44.224Z,9.73
2023-03-28T20:56:13.465Z,9.72
2023-03-28T20:58:40.686Z,9.73
2023-03-28T21:01:12.042Z,9.70
2023-03-28T21:03:50.235Z,9.47
2023-03-28T21:06:20.404Z,9.29
2023-03-28T21:08:49.985Z,9.29
2023-03-28T21:11:22.212Z,9.46
2023-03-28T21:13:49.542Z,9.45
2023-03-28T21:16:17.204Z,9.46
2023-03-28T21:18:44.993Z,9.45
2023-03-28T21:21:14.105Z,9.49
2023-03-28T21:23:41.453Z,9.50
2023-03-28T21:26:13.775Z,9.47
2023-03-28T21:28:41.068Z,9.54
2023-03-28T21:31:12.243Z,9.56
2023-03-28T21:33:40.315Z,9.48
2023-03-28T21:36:10.167Z,9.35
2023-03-28T21:38:38.295Z,9.30
2023-03-28T21:41:06.142Z,9.33
2023-03-28T21:43:33.388Z,9.39
2023-03-28T21:46:00.458Z,9.29
2023-03-28T21:48:27.941Z,9.20
2023-03-28T21:51:00.548Z,9.21
2023-03-28T21:53:31.924Z,9.38
2023-03-28T21:55:59.521Z,9.43
2023-03-28T21:58:29.895Z,9.46
2023-03-28T22:00:57.245Z,9.50
2023-03-28T22:03:24.688Z,9.43
2023-03-28T22:05:53.426Z,9.32
2023-03-28T22:08:22.137Z,9.45
2023-03-28T22:10:58.264Z,9.43
2023-03-28T22:13:25.167Z,9.48
2023-03-28T22:15:52.845Z,9.53
2023-03-28T22:18:20.522Z,9.51
2023-03-28T22:20:53.122Z,9.40
2023-03-28T22:23:22.699Z,9.45
2023-03-28T22:25:50.431Z,9.49
2023-03-28T22:28:18.752Z,9.34
2023-03-28T22:30:45.977Z,9.26
2023-03-28T22:33:13.419Z,9.32
2023-03-28T22:35:40.605Z,9.37
2023-03-28T22:38:07.725Z,9.33
2023-03-28T22:40:34.948Z,9.17
2023-03-28T22:43:03.066Z,9.33
2023-03-28T22:45:30.032Z,9.33
2023-03-28T22:48:00.170Z,9.43
2023-03-28T22:50:28.127Z,9.46
2023-03-28T22:52:55.431Z,9.33
2023-03-28T22:55:24.153Z,9.34
2023-03-28T22:57:52.479Z,9.29
2023-03-28T23:00:23.527Z,9.17
2023-03-28T23:02:52.061Z,9.28
2023-03-28T23:05:19.861Z,9.18
2023-03-28T23:07:47.312Z,9.14
2023-03-28T23:10:17.646Z,9.05
2023-03-28T23:12:45.493Z,8.86
2023-03-28T23:15:13.182Z,8.92
2023-03-28T23:17:40.287Z,9.00
2023-03-28T23:20:12.477Z,9.01
2023-03-28T23:22:41.486Z,9.01
2023-03-28T23:25:10.729Z,8.86
2023-03-28T23:27:37.758Z,8.97
2023-03-28T23:30:05.778Z,8.94
2023-03-28T23:32:32.618Z,8.95
2023-03-28T23:34:59.633Z,8.93
2023-03-28T23:37:27.390Z,8.95
2023-03-28T23:39:55.490Z,9.05
2023-03-28T23:42:24.095Z,8.83
2023-03-28T23:44:51.754Z,9.01
2023-03-28T23:47:20.354Z,8.87
2023-03-28T23:49:47.578Z,8.80
2023-03-28T23:52:16.235Z,8.95
2023-03-28T23:54:44.092Z,8.97
2023-03-28T23:57:11.038Z,9.10
2023-03-28T23:59:37.879Z,9.01
